createdAt,value
2018-06-14T00:00:54.635Z,6.29
2018-06-14T00:02:29.405Z,6.30
2018-06-14T00:04:04.252Z,6.29
2018-06-14T00:05:40.656Z,6.25
2018-06-14T00:07:15.437Z,6.19
2018-06-14T00:08:51.343Z,6.20
2018-06-14T00:10:26.149Z,6.22
2018-06-14T00:12:01.275Z,6.22
2018-06-14T00:13:36.068Z,6.23
2018-06-14T00:15:13.065Z,6.22
2018-06-14T00:16:48.026Z,6.14
2018-06-14T00:18:22.821Z,6.09
2018-06-14T00:19:58.174Z,6.06
2018-06-14T00:21:33.139Z,6.02
2018-06-14T00:23:07.988Z,6.00
2018-06-14T00:24:44.799Z,6.03
2018-06-14T00:26:21.631Z,5.97
2018-06-14T00:28:03.609Z,5.96
2018-06-14T00:29:38.785Z,6.01
2018-06-14T00:31:13.596Z,5.96
2018-06-14T00:32:49.309Z,5.98
2018-06-14T00:34:26.729Z,6.01
2018-06-14T00:36:01.514Z,5.94
2018-06-14T00:37:36.211Z,5.96
2018-06-14T00:39:12.285Z,5.92
2018-06-14T00:40:47.132Z,5.88
2018-06-14T00:42:21.803Z,5.85
2018-06-14T00:43:56.519Z,5.85
2018-06-14T00:45:31.154Z,5.85
2018-06-14T00:47:06.375Z,5.90
2018-06-14T00:48:41.325Z,5.84
2018-06-14T00:50:17.125Z,5.99
2018-06-14T00:51:52.031Z,5.85
2018-06-14T00:53:27.614Z,5.79
2018-06-14T00:55:05.531Z,5.77
2018-06-14T00:56:50.962Z,5.75
2018-06-14T00:58:26.373Z,5.84
2018-06-14T01:00:01.169Z,5.80
2018-06-14T01:01:36.451Z,5.77
2018-06-14T01:03:12.634Z,5.73
2018-06-14T01:04:48.499Z,5.65
2018-06-14T01:06:23.525Z,5.69
2018-06-14T01:07:58.965Z,5.75
2018-06-14T01:09:33.769Z,5.73
2018-06-14T01:11:10.086Z,5.72
2018-06-14T01:12:46.977Z,5.70
2018-06-14T01:14:23.148Z,5.71
2018-06-14T01:15:59.623Z,5.66
2018-06-14T01:17:56.985Z,5.64
2018-06-14T01:19:31.884Z,5.59
2018-06-14T01:21:07.139Z,5.55
2018-06-14T01:22:45.078Z,5.56
2018-06-14T01:24:20.452Z,5.57
2018-06-14T01:26:03.266Z,5.58
2018-06-14T01:27:39.609Z,5.53
2018-06-14T01:29:16.485Z,5.60
2018-06-14T01:30:51.348Z,5.65
2018-06-14T01:32:27.833Z,5.62
2018-06-14T01:34:02.606Z,5.62
2018-06-14T01:35:38.891Z,5.62
2018-06-14T01:37:14.013Z,5.66
2018-06-14T01:38:49.170Z,5.68
2018-06-14T01:40:24.765Z,5.64
2018-06-14T01:41:59.618Z,5.61
2018-06-14T01:43:34.268Z,5.55
2018-06-14T01:45:09.727Z,5.59
2018-06-14T01:46:44.836Z,5.58
2018-06-14T01:48:20.596Z,5.58
2018-06-14T01:49:55.860Z,5.57
2018-06-14T01:51:30.696Z,5.60
2018-06-14T01:53:05.654Z,5.60
2018-06-14T01:54:40.558Z,5.59
2018-06-14T01:56:15.558Z,5.54
2018-06-14T01:57:52.627Z,5.59
2018-06-14T01:59:30.088Z,5.59
2018-06-14T02:01:05.416Z,5.62
2018-06-14T02:02:40.251Z,5.60
2018-06-14T02:04:15.012Z,5.58
2018-06-14T02:05:49.737Z,5.55
2018-06-14T02:07:27.256Z,5.62
2018-06-14T02:09:03.552Z,5.63
2018-06-14T02:10:40.181Z,5.60
2018-06-14T02:12:15.531Z,5.61
2018-06-14T02:13:50.942Z,5.60
2018-06-14T02:15:28.250Z,5.57
2018-06-14T02:17:03.448Z,5.59
2018-06-14T02:18:42.610Z,5.58
2018-06-14T02:20:19.603Z,5.57
2018-06-14T02:21:54.230Z,5.57
2018-06-14T02:23:29.263Z,5.56
2018-06-14T02:25:04.543Z,5.54
2018-06-14T02:26:41.577Z,5.50
2018-06-14T02:28:17.344Z,5.49
2018-06-14T02:29:52.135Z,5.54
2018-06-14T02:31:27.763Z,5.58
2018-06-14T02:33:04.583Z,5.55
2018-06-14T02:34:39.491Z,5.48
2018-06-14T02:36:14.471Z,5.45
2018-06-14T02:37:49.879Z,5.39
2018-06-14T02:39:24.689Z,5.41
2018-06-14T02:40:59.664Z,5.44
2018-06-14T02:42:34.568Z,5.43
2018-06-14T02:44:10.497Z,5.36
2018-06-14T02:45:46.195Z,5.32
2018-06-14T02:47:20.927Z,5.27
2018-06-14T02:48:56.572Z,5.27
2018-06-14T02:50:31.283Z,5.26
2018-06-14T02:52:06.199Z,5.31
2018-06-14T02:53:40.956Z,5.31
2018-06-14T02:55:15.712Z,5.37
2018-06-14T02:56:50.912Z,5.34
2018-06-14T02:58:25.647Z,5.29
2018-06-14T03:00:00.425Z,5.25
2018-06-14T03:01:35.503Z,5.22
2018-06-14T03:03:10.414Z,5.25
2018-06-14T03:04:48.561Z,5.24
2018-06-14T03:06:23.524Z,5.33
2018-06-14T03:07:58.378Z,5.35
2018-06-14T03:09:34.524Z,5.32
2018-06-14T03:11:10.873Z,5.29
2018-06-14T03:12:46.287Z,5.27
2018-06-14T03:14:21.018Z,5.23
2018-06-14T03:15:56.399Z,5.21
2018-06-14T03:17:31.090Z,5.20
2018-06-14T03:19:05.921Z,5.20
2018-06-14T03:20:41.363Z,5.21
2018-06-14T03:22:17.479Z,5.21
2018-06-14T03:23:52.256Z,5.22
2018-06-14T03:25:27.865Z,5.21
2018-06-14T03:27:02.659Z,5.22
2018-06-14T03:28:38.119Z,5.24
2018-06-14T03:30:14.958Z,5.32
2018-06-14T03:31:50.480Z,5.38
2018-06-14T03:33:25.740Z,5.43
2018-06-14T03:35:00.511Z,5.42
2018-06-14T03:36:36.468Z,5.44
2018-06-14T03:38:11.172Z,5.45
2018-06-14T03:39:45.951Z,5.47
2018-06-14T03:41:20.707Z,5.49
2018-06-14T03:42:57.289Z,5.51
2018-06-14T03:44:32.541Z,5.54
2018-06-14T03:46:07.359Z,5.61
2018-06-14T03:47:42.024Z,5.66
2018-06-14T03:49:18.778Z,5.64
2018-06-14T03:50:53.981Z,5.76
2018-06-14T03:52:29.594Z,5.85
2018-06-14T03:54:04.357Z,5.91
2018-06-14T03:55:39.189Z,5.97
2018-06-14T03:57:13.897Z,5.95
2018-06-14T03:58:48.913Z,5.99
2018-06-14T04:00:24.637Z,6.06
2018-06-14T04:01:59.811Z,6.06
2018-06-14T04:03:34.539Z,6.04
2018-06-14T04:05:09.382Z,6.07
2018-06-14T04:06:45.284Z,6.11
2018-06-14T04:08:21.002Z,6.12
2018-06-14T04:09:57.849Z,6.20
2018-06-14T04:11:32.503Z,6.20
2018-06-14T04:13:07.471Z,6.24
2018-06-14T04:14:42.127Z,6.30
2018-06-14T04:16:18.628Z,6.37
2018-06-14T04:17:57.667Z,6.40
2018-06-14T04:19:32.429Z,6.43
2018-06-14T04:21:07.206Z,6.51
2018-06-14T04:22:41.996Z,6.58
2018-06-14T04:24:17.220Z,6.66
2018-06-14T04:25:52.002Z,6.72
2018-06-14T04:27:26.792Z,6.78
2018-06-14T04:29:01.636Z,6.86
2018-06-14T04:30:37.488Z,6.97
2018-06-14T04:32:12.603Z,7.13
2018-06-14T04:33:47.260Z,7.21
2018-06-14T04:35:24.344Z,7.26
2018-06-14T04:37:00.446Z,7.30
2018-06-14T04:38:35.884Z,7.36
2018-06-14T04:40:11.130Z,7.39
2018-06-14T04:41:47.883Z,7.48
2018-06-14T04:43:23.604Z,7.59
2018-06-14T04:44:58.304Z,7.70
2018-06-14T04:46:34.287Z,7.84
2018-06-14T04:48:10.193Z,8.00
2018-06-14T04:49:45.795Z,8.11
2018-06-14T04:51:21.388Z,8.25
2018-06-14T04:52:57.103Z,8.40
2018-06-14T04:54:31.787Z,8.53
2018-06-14T04:56:07.808Z,8.73
2018-06-14T04:57:42.773Z,8.87
2018-06-14T04:59:17.632Z,9.13
2018-06-14T05:00:52.770Z,9.43
2018-06-14T05:02:28.594Z,9.66
2018-06-14T05:04:03.779Z,9.91
2018-06-14T05:05:39.178Z,10.13
2018-06-14T05:07:14.075Z,10.31
2018-06-14T05:08:48.853Z,10.47
2018-06-14T05:10:23.908Z,10.74
2018-06-14T05:11:59.983Z,10.90
2018-06-14T05:13:35.570Z,11.08
2018-06-14T05:15:11.730Z,11.29
2018-06-14T05:16:46.878Z,11.50
2018-06-14T05:18:23.173Z,11.78
2018-06-14T05:19:57.851Z,12.07
2018-06-14T05:21:34.150Z,12.23
2018-06-14T05:23:08.976Z,12.44
2018-06-14T05:24:44.739Z,12.54
2018-06-14T05:26:19.571Z,12.84
2018-06-14T05:29:54.338Z,13.19
2018-06-14T05:31:29.286Z,13.43
2018-06-14T05:33:04.702Z,13.62
2018-06-14T05:34:40.632Z,13.77
2018-06-14T05:36:18.948Z,13.84
2018-06-14T05:37:53.908Z,14.04
2018-06-14T05:39:28.640Z,14.24
2018-06-14T05:41:03.436Z,14.44
2018-06-14T05:42:38.181Z,14.57
2018-06-14T05:44:15.514Z,14.77
2018-06-14T05:45:50.288Z,14.91
2018-06-14T05:47:25.305Z,15.18
2018-06-14T05:49:02.407Z,15.22
2018-06-14T05:50:37.241Z,15.35
2018-06-14T05:52:14.639Z,15.32
2018-06-14T05:53:50.377Z,15.49
2018-06-14T05:55:26.389Z,15.59
2018-06-14T05:57:02.520Z,15.67
2018-06-14T05:58:37.175Z,15.54
2018-06-14T06:00:19.497Z,15.67
2018-06-14T06:01:54.361Z,15.88
2018-06-14T06:03:29.644Z,15.54
2018-06-14T06:05:05.171Z,15.92
2018-06-14T06:06:40.765Z,15.72
2018-06-14T06:08:15.563Z,15.95
2018-06-14T06:09:52.165Z,15.94
2018-06-14T06:11:27.004Z,16.12
2018-06-14T06:13:03.197Z,16.26
2018-06-14T06:14:38.555Z,16.12
2018-06-14T06:16:16.840Z,15.94
2018-06-14T06:17:51.651Z,16.35
2018-06-14T06:19:26.573Z,15.74
2018-06-14T06:21:01.864Z,16.25
2018-06-14T06:22:36.673Z,16.56
2018-06-14T06:24:12.245Z,16.02
2018-06-14T06:25:52.800Z,16.02
2018-06-14T06:27:27.577Z,15.91
2018-06-14T06:29:02.719Z,16.13
2018-06-14T06:30:38.038Z,16.06
2018-06-14T06:32:13.167Z,16.47
2018-06-14T06:33:47.841Z,16.24
2018-06-14T06:35:25.178Z,16.58
2018-06-14T06:37:00.364Z,16.30
2018-06-14T06:38:38.393Z,16.46
2018-06-14T06:40:13.152Z,16.67
2018-06-14T06:41:48.030Z,16.80
2018-06-14T06:43:23.267Z,16.62
2018-06-14T06:44:58.066Z,16.58
2018-06-14T06:46:32.815Z,16.70
2018-06-14T06:48:07.514Z,16.95
2018-06-14T06:49:42.706Z,17.29
2018-06-14T06:51:17.405Z,17.42
2018-06-14T06:52:52.891Z,17.44
2018-06-14T06:54:27.808Z,17.41
2018-06-14T06:56:02.601Z,17.47
2018-06-14T06:57:37.814Z,17.45
2018-06-14T06:59:14.784Z,17.81
2018-06-14T07:00:50.186Z,17.64
2018-06-14T07:02:24.845Z,17.64
2018-06-14T07:04:01.560Z,18.07
2018-06-14T07:05:39.810Z,17.72
2018-06-14T07:07:14.840Z,17.41
2018-06-14T07:08:50.651Z,17.85
2018-06-14T07:10:31.050Z,17.76
2018-06-14T07:12:09.845Z,17.61
2018-06-14T07:13:45.120Z,18.03
2018-06-14T07:15:22.313Z,18.30
2018-06-14T07:16:58.460Z,18.31
2018-06-14T07:18:33.278Z,17.88
2018-06-14T07:20:09.752Z,18.07
2018-06-14T07:21:45.683Z,17.50
2018-06-14T07:23:21.198Z,17.83
2018-06-14T07:24:57.587Z,18.24
2018-06-14T07:26:33.630Z,17.89
2018-06-14T07:28:11.648Z,17.84
2018-06-14T07:29:49.856Z,17.66
2018-06-14T07:31:26.024Z,18.16
2018-06-14T07:33:01.203Z,18.35
2018-06-14T07:34:35.972Z,18.33
2018-06-14T07:36:11.513Z,18.12
2018-06-14T07:37:48.184Z,18.13
2018-06-14T07:39:24.133Z,17.54
2018-06-14T07:41:01.123Z,17.93
2018-06-14T07:42:37.884Z,17.67
2018-06-14T07:44:12.709Z,17.90
2018-06-14T07:45:51.598Z,18.28
2018-06-14T07:49:21.452Z,18.37
2018-06-14T07:50:58.148Z,18.36
2018-06-14T07:52:34.505Z,18.60
2018-06-14T07:54:09.462Z,18.59
2018-06-14T07:55:44.371Z,18.70
2018-06-14T07:57:20.183Z,18.35
2018-06-14T07:58:56.482Z,18.56
2018-06-14T08:00:31.340Z,18.09
2018-06-14T08:02:06.161Z,17.54
2018-06-14T08:03:41.294Z,17.27
2018-06-14T08:05:16.418Z,17.74
2018-06-14T08:06:51.461Z,17.32
2018-06-14T08:08:26.455Z,17.81
2018-06-14T08:10:01.292Z,18.09
2018-06-14T08:11:36.376Z,18.46
2018-06-14T08:13:11.590Z,19.04
2018-06-14T08:14:49.309Z,18.69
2018-06-14T08:16:26.451Z,18.73
2018-06-14T08:18:01.943Z,19.60
2018-06-14T08:19:36.905Z,19.50
2018-06-14T08:21:12.095Z,19.90
2018-06-14T08:22:48.514Z,20.00
2018-06-14T08:24:25.659Z,20.01
2018-06-14T08:27:29.016Z,19.23
2018-06-14T08:29:06.905Z,18.86
2018-06-14T08:30:43.468Z,19.16
2018-06-14T08:32:22.334Z,18.87
2018-06-14T08:33:59.584Z,19.08
2018-06-14T08:35:36.375Z,18.87
2018-06-14T08:37:12.264Z,19.23
2018-06-14T08:38:50.075Z,18.83
2018-06-14T08:40:27.546Z,18.77
2018-06-14T08:42:02.978Z,19.29
2018-06-14T08:43:39.565Z,18.96
2018-06-14T08:45:20.285Z,18.23
2018-06-14T08:46:57.676Z,18.05
2018-06-14T08:48:34.381Z,17.91
2018-06-14T08:50:11.562Z,17.81
2018-06-14T08:51:48.361Z,17.85
2018-06-14T08:53:28.235Z,18.41
2018-06-14T08:55:04.466Z,18.70
2018-06-14T08:56:41.267Z,18.19
2018-06-14T08:58:18.615Z,18.23
2018-06-14T08:59:56.176Z,17.50
2018-06-14T09:01:31.500Z,17.89
2018-06-14T09:03:07.463Z,17.85
2018-06-14T09:04:43.483Z,17.65
2018-06-14T09:06:19.252Z,17.43
2018-06-14T09:13:31.008Z,17.53
2018-06-14T09:15:08.398Z,17.91
2018-06-14T09:16:44.319Z,18.04
2018-06-14T09:18:21.930Z,18.36
2018-06-14T09:20:00.516Z,19.16
2018-06-14T09:21:37.512Z,19.14
2018-06-14T09:23:13.322Z,19.70
2018-06-14T09:24:49.196Z,19.91
2018-06-14T09:26:25.202Z,20.25
2018-06-14T09:28:00.949Z,20.59
2018-06-14T09:29:37.202Z,20.52
2018-06-14T09:31:12.668Z,20.81
2018-06-14T09:32:48.445Z,21.06
2018-06-14T09:34:25.782Z,21.02
2018-06-14T09:36:02.341Z,21.15
2018-06-14T09:37:39.672Z,20.99
2018-06-14T09:39:16.987Z,20.96
2018-06-14T09:40:52.099Z,21.09
2018-06-14T09:42:28.804Z,20.49
2018-06-14T09:44:07.334Z,20.83
2018-06-14T09:47:16.298Z,21.97
2018-06-14T09:48:57.595Z,21.51
2018-06-14T09:50:34.759Z,21.30
2018-06-14T09:52:11.105Z,21.17
2018-06-14T09:53:48.123Z,21.64
2018-06-14T09:55:26.638Z,21.76
2018-06-14T09:57:02.331Z,21.67
2018-06-14T09:58:38.437Z,22.28
2018-06-14T10:00:17.221Z,22.44
2018-06-14T10:01:53.111Z,22.19
2018-06-14T10:03:29.400Z,22.19
2018-06-14T10:05:10.280Z,22.00
2018-06-14T10:06:47.576Z,21.74
2018-06-14T10:08:24.855Z,21.88
2018-06-14T10:10:00.227Z,21.98
2018-06-14T10:11:35.852Z,21.69
2018-06-14T10:13:12.392Z,22.02
2018-06-14T10:14:48.198Z,21.80
2018-06-14T10:16:25.557Z,22.36
2018-06-14T10:18:02.445Z,22.48
2018-06-14T10:19:42.881Z,22.11
2018-06-14T10:21:18.385Z,21.09
2018-06-14T10:22:56.038Z,20.81
2018-06-14T10:26:22.062Z,21.75
2018-06-14T10:28:02.462Z,21.28
2018-06-14T10:29:45.310Z,20.95
2018-06-14T10:31:24.930Z,21.50
2018-06-14T10:33:05.828Z,21.70
2018-06-14T10:34:42.863Z,22.29
2018-06-14T10:36:18.408Z,22.32
2018-06-14T10:37:54.548Z,22.16
2018-06-14T10:39:35.158Z,21.78
2018-06-14T10:41:13.466Z,21.75
2018-06-14T10:42:51.811Z,22.55
2018-06-14T10:44:30.680Z,22.45
2018-06-14T10:46:10.083Z,21.84
2018-06-14T10:47:53.621Z,22.35
2018-06-14T10:49:28.914Z,22.12
2018-06-14T10:51:08.788Z,21.56
2018-06-14T10:52:45.433Z,21.19
2018-06-14T10:56:18.595Z,21.87
2018-06-14T10:57:59.328Z,21.01
2018-06-14T10:59:38.890Z,20.79
2018-06-14T11:01:17.210Z,20.37
2018-06-14T11:02:54.678Z,20.68
2018-06-14T11:04:34.509Z,20.34
2018-06-14T11:06:13.541Z,21.04
2018-06-14T11:07:51.614Z,21.95
2018-06-14T11:09:28.709Z,22.68
2018-06-14T11:11:07.639Z,23.23
2018-06-14T11:12:54.818Z,23.19
2018-06-14T11:14:32.784Z,23.34
2018-06-14T11:16:10.703Z,23.56
2018-06-14T11:17:53.717Z,24.01
2018-06-14T11:19:33.655Z,24.14
2018-06-14T11:21:18.862Z,24.27
2018-06-14T11:22:56.422Z,23.81
2018-06-14T11:24:45.248Z,23.02
2018-06-14T11:26:23.635Z,22.48
2018-06-14T11:27:59.508Z,22.88
2018-06-14T11:29:34.868Z,24.00
2018-06-14T11:31:12.700Z,23.02
2018-06-14T11:32:49.569Z,22.03
2018-06-14T11:34:26.945Z,22.03
2018-06-14T11:36:05.273Z,23.03
2018-06-14T11:37:41.356Z,22.73
2018-06-14T11:39:20.949Z,23.18
2018-06-14T11:40:56.037Z,22.08
2018-06-14T11:42:37.548Z,22.33
2018-06-14T11:44:13.750Z,22.06
2018-06-14T11:45:50.066Z,21.64
2018-06-14T11:47:28.843Z,22.01
2018-06-14T11:49:05.020Z,23.31
2018-06-14T11:50:41.224Z,23.50
2018-06-14T11:52:17.014Z,22.07
2018-06-14T11:53:53.289Z,22.32
2018-06-14T11:55:29.135Z,23.14
2018-06-14T11:57:05.324Z,22.26
2018-06-14T11:58:41.919Z,22.48
2018-06-14T12:00:19.587Z,21.65
2018-06-14T12:01:56.549Z,21.77
2018-06-14T12:03:35.305Z,22.58
2018-06-14T12:05:12.584Z,22.99
2018-06-14T12:06:48.951Z,23.76
2018-06-14T12:08:27.894Z,23.57
2018-06-14T12:10:04.486Z,22.58
2018-06-14T12:11:42.947Z,21.73
2018-06-14T12:15:00.220Z,22.02
2018-06-14T12:16:36.898Z,21.14
2018-06-14T12:18:12.177Z,20.97
2018-06-14T12:19:51.044Z,21.50
2018-06-14T12:21:31.965Z,21.57
2018-06-14T12:23:09.458Z,21.75
2018-06-14T12:24:47.369Z,21.54
2018-06-14T12:26:23.260Z,21.44
2018-06-14T12:28:00.174Z,21.65
2018-06-14T12:29:39.496Z,21.85
2018-06-14T12:31:16.478Z,22.53
2018-06-14T12:32:53.762Z,23.23
2018-06-14T12:34:30.755Z,22.92
2018-06-14T12:36:09.338Z,22.86
2018-06-14T12:37:46.641Z,23.14
2018-06-14T12:39:29.055Z,23.38
2018-06-14T12:41:04.665Z,23.03
2018-06-14T12:42:43.797Z,22.41
2018-06-14T12:44:21.462Z,23.01
2018-06-14T12:46:00.759Z,23.02
2018-06-14T12:47:38.678Z,23.05
2018-06-14T12:49:17.120Z,22.91
2018-06-14T12:50:54.314Z,22.59
2018-06-14T12:52:30.653Z,22.09
2018-06-14T12:54:09.399Z,22.20
2018-06-14T12:55:47.794Z,22.45
2018-06-14T12:57:25.985Z,22.55
2018-06-14T12:59:07.553Z,22.52
2018-06-14T13:00:49.553Z,22.01
2018-06-14T13:02:30.228Z,22.03
2018-06-14T13:04:09.039Z,21.88
2018-06-14T13:05:49.599Z,22.10
2018-06-14T13:07:29.863Z,21.83
2018-06-14T13:09:09.637Z,21.71
2018-06-14T13:12:42.194Z,22.32
2018-06-14T13:14:18.294Z,22.44
2018-06-14T13:15:57.240Z,21.81
2018-06-14T13:17:43.022Z,21.93
2018-06-14T13:19:19.978Z,21.88
2018-06-14T13:20:56.407Z,21.77
2018-06-14T13:22:38.317Z,21.65
2018-06-14T13:24:24.909Z,21.69
2018-06-14T13:26:06.605Z,21.91
2018-06-14T13:27:42.700Z,21.22
2018-06-14T13:29:18.967Z,21.08
2018-06-14T13:30:56.639Z,21.11
2018-06-14T13:32:33.462Z,20.98
2018-06-14T13:34:09.152Z,21.22
2018-06-14T13:35:47.489Z,21.05
2018-06-14T13:37:26.196Z,20.80
2018-06-14T13:39:01.429Z,21.18
2018-06-14T13:40:39.453Z,21.07
2018-06-14T13:42:19.273Z,21.17
2018-06-14T13:43:59.213Z,20.86
2018-06-14T13:45:36.006Z,20.71
2018-06-14T13:47:13.393Z,20.75
2018-06-14T13:50:39.436Z,21.09
2018-06-14T13:52:15.663Z,21.48
2018-06-14T13:54:09.281Z,20.98
2018-06-14T13:55:45.932Z,20.93
2018-06-14T13:57:23.061Z,21.37
2018-06-14T13:59:00.543Z,21.72
2018-06-14T14:00:41.062Z,21.96
2018-06-14T14:02:29.151Z,21.65
2018-06-14T14:04:07.392Z,21.54
2018-06-14T14:05:44.960Z,21.22
2018-06-14T14:07:27.127Z,21.33
2018-06-14T14:09:06.610Z,21.33
2018-06-14T14:10:43.679Z,21.30
2018-06-14T14:12:20.008Z,21.26
2018-06-14T14:13:57.657Z,21.59
2018-06-14T14:15:39.526Z,21.47
2018-06-14T14:17:16.276Z,21.68
2018-06-14T14:18:53.115Z,21.18
2018-06-14T14:20:31.284Z,21.40
2018-06-14T14:22:07.610Z,21.22
2018-06-14T14:23:47.584Z,21.30
2018-06-14T14:25:23.962Z,21.32
2018-06-14T14:27:04.487Z,21.31
2018-06-14T14:28:41.770Z,21.60
2018-06-14T14:30:20.201Z,21.51
2018-06-14T14:31:57.113Z,21.31
2018-06-14T14:33:46.939Z,21.27
2018-06-14T14:35:29.037Z,21.13
2018-06-14T14:37:10.632Z,20.98
2018-06-14T14:38:56.428Z,21.07
2018-06-14T14:40:37.040Z,21.21
2018-06-14T14:42:16.397Z,21.44
2018-06-14T14:43:54.207Z,21.77
2018-06-14T14:45:32.217Z,21.97
2018-06-14T14:47:08.651Z,21.72
2018-06-14T14:48:49.998Z,21.55
2018-06-14T14:50:26.798Z,21.53
2018-06-14T14:52:05.978Z,21.91
2018-06-14T14:53:48.443Z,21.63
2018-06-14T14:55:27.458Z,20.96
2018-06-14T14:57:07.331Z,20.82
2018-06-14T14:58:57.766Z,20.99
2018-06-14T15:00:33.830Z,20.87
2018-06-14T15:02:13.269Z,20.97
2018-06-14T15:04:00.065Z,21.19
2018-06-14T15:05:40.016Z,21.20
2018-06-14T15:07:16.138Z,20.70
2018-06-14T15:09:06.394Z,21.14
2018-06-14T15:10:51.340Z,21.40
2018-06-14T15:12:34.662Z,21.58
2018-06-14T15:14:10.088Z,21.19
2018-06-14T15:15:55.120Z,20.80
2018-06-14T15:17:36.621Z,21.06
2018-06-14T15:20:57.494Z,21.00
2018-06-14T15:22:54.417Z,20.96
2018-06-14T15:24:38.151Z,20.87
2018-06-14T15:26:21.450Z,20.18
2018-06-14T15:28:10.597Z,20.34
2018-06-14T15:29:53.511Z,20.42
2018-06-14T15:31:33.053Z,20.66
2018-06-14T15:33:13.394Z,20.49
2018-06-14T15:34:55.146Z,20.58
2018-06-14T15:36:48.636Z,20.45
2018-06-14T15:38:38.698Z,20.25
2018-06-14T15:40:23.432Z,20.23
2018-06-14T15:42:04.999Z,20.10
2018-06-14T15:43:46.264Z,19.89
2018-06-14T15:45:23.805Z,19.88
2018-06-14T15:47:07.219Z,19.86
2018-06-14T15:48:50.084Z,19.46
2018-06-14T15:53:55.356Z,19.55
2018-06-14T15:57:38.784Z,19.26
2018-06-14T15:59:24.998Z,19.00
2018-06-14T16:01:01.563Z,19.03
2018-06-14T16:02:41.552Z,18.89
2018-06-14T16:04:19.349Z,18.75
2018-06-14T16:06:05.967Z,18.64
2018-06-14T16:07:49.565Z,18.73
2018-06-14T16:09:26.970Z,18.49
2018-06-14T16:11:05.653Z,18.28
2018-06-14T16:12:44.686Z,18.03
2018-06-14T16:14:19.796Z,18.07
2018-06-14T16:15:57.507Z,18.09
2018-06-14T16:17:37.875Z,17.96
2018-06-14T16:19:16.699Z,17.60
2018-06-14T16:20:55.399Z,17.53
2018-06-14T16:22:33.456Z,17.41
2018-06-14T16:26:05.977Z,17.06
2018-06-14T16:27:44.617Z,17.05
2018-06-14T16:29:23.213Z,16.98
2018-06-14T16:31:01.392Z,16.78
2018-06-14T16:34:31.282Z,16.39
2018-06-14T16:36:11.553Z,16.34
2018-06-14T16:37:49.658Z,16.20
2018-06-14T16:39:30.552Z,16.26
2018-06-14T16:41:09.573Z,16.19
2018-06-14T16:42:49.498Z,16.09
2018-06-14T16:44:27.589Z,16.05
2018-06-14T16:46:08.161Z,15.96
2018-06-14T16:47:48.454Z,16.08
2018-06-14T16:49:25.748Z,15.84
2018-06-14T16:51:02.004Z,15.74
2018-06-14T16:52:40.445Z,15.54
2018-06-14T16:54:17.119Z,15.35
2018-06-14T16:55:52.396Z,15.27
2018-06-14T16:57:29.850Z,15.12
2018-06-14T16:59:05.823Z,15.05
2018-06-14T17:00:43.310Z,14.99
2018-06-14T17:02:19.613Z,14.87
2018-06-14T17:03:57.374Z,14.67
2018-06-14T17:05:34.703Z,14.55
2018-06-14T17:07:17.404Z,14.50
2018-06-14T17:08:55.549Z,14.54
2018-06-14T17:10:36.609Z,14.49
2018-06-14T17:12:14.991Z,14.40
2018-06-14T17:13:54.642Z,14.31
2018-06-14T17:15:32.846Z,14.21
2018-06-14T17:17:09.193Z,14.09
2018-06-14T17:18:50.532Z,14.13
2018-06-14T17:20:30.721Z,14.01
2018-06-14T17:22:08.672Z,14.08
2018-06-14T17:23:46.986Z,14.13
2018-06-14T17:25:27.091Z,14.14
2018-06-14T17:27:09.313Z,14.12
2018-06-14T17:28:50.711Z,14.10
2018-06-14T17:30:30.021Z,13.99
2018-06-14T17:32:10.296Z,13.99
2018-06-14T17:33:50.850Z,14.01
2018-06-14T17:35:31.225Z,14.00
2018-06-14T17:37:09.306Z,14.04
2018-06-14T17:38:48.730Z,14.01
2018-06-14T17:40:33.737Z,13.94
2018-06-14T17:42:16.765Z,13.91
2018-06-14T17:44:01.379Z,13.86
2018-06-14T17:45:41.736Z,13.89
2018-06-14T17:47:21.712Z,13.88
2018-06-14T17:49:03.342Z,13.82
2018-06-14T17:50:48.282Z,13.80
2018-06-14T17:52:36.332Z,13.84
2018-06-14T17:54:20.019Z,13.83
2018-06-14T17:55:58.207Z,13.85
2018-06-14T17:57:44.790Z,13.86
2018-06-14T17:59:27.280Z,13.86
2018-06-14T18:01:12.116Z,13.89
2018-06-14T18:02:53.549Z,13.82
2018-06-14T18:04:41.555Z,13.81
2018-06-14T18:06:23.749Z,13.83
2018-06-14T18:08:08.811Z,13.86
2018-06-14T18:09:46.690Z,13.82
2018-06-14T18:11:25.874Z,13.78
2018-06-14T18:13:02.639Z,13.71
2018-06-14T18:14:41.479Z,13.74
2018-06-14T18:16:18.244Z,13.62
2018-06-14T18:17:59.459Z,13.66
2018-06-14T18:19:40.245Z,13.71
2018-06-14T18:21:21.433Z,13.66
2018-06-14T18:23:11.185Z,13.70
2018-06-14T18:24:50.311Z,13.68
2018-06-14T18:26:37.045Z,13.72
2018-06-14T18:28:13.860Z,13.68
2018-06-14T18:29:50.988Z,13.68
2018-06-14T18:31:30.600Z,13.54
2018-06-14T18:33:07.993Z,13.65
2018-06-14T18:34:44.747Z,13.65
2018-06-14T18:36:25.480Z,13.61
2018-06-14T18:38:02.898Z,13.66
2018-06-14T18:39:40.885Z,13.63
2018-06-14T18:43:22.519Z,13.63
2018-06-14T18:45:10.373Z,13.60
2018-06-14T18:46:50.640Z,13.62
2018-06-14T18:48:34.651Z,13.58
2018-06-14T18:50:13.639Z,13.63
2018-06-14T18:53:57.331Z,13.65
2018-06-14T18:55:42.100Z,13.67
2018-06-14T18:57:22.220Z,13.62
2018-06-14T18:59:16.266Z,13.59
2018-06-14T19:00:59.273Z,13.66
2018-06-14T19:02:38.097Z,13.63
2018-06-14T19:04:20.046Z,13.63
2018-06-14T19:06:08.081Z,13.65
2018-06-14T19:07:46.761Z,13.60
2018-06-14T19:09:26.316Z,13.63
2018-06-14T19:12:57.375Z,13.62
2018-06-14T19:14:37.224Z,13.63
2018-06-14T19:16:20.533Z,13.62
2018-06-14T19:18:02.077Z,13.57
2018-06-14T19:19:38.246Z,13.52
2018-06-14T19:21:15.653Z,13.52
2018-06-14T19:22:54.018Z,13.55
2018-06-14T19:24:29.268Z,13.52
2018-06-14T19:26:05.207Z,13.59
2018-06-14T19:27:42.807Z,13.55
2018-06-14T19:29:19.544Z,13.53
2018-06-14T19:30:57.412Z,13.56
2018-06-14T19:32:41.798Z,13.57
2018-06-14T19:34:17.339Z,13.55
2018-06-14T19:35:56.236Z,13.46
2018-06-14T19:37:37.610Z,13.49
2018-06-14T19:39:16.442Z,13.39
2018-06-14T19:40:54.538Z,13.43
2018-06-14T19:42:40.562Z,13.49
2018-06-14T19:44:21.937Z,13.47
2018-06-14T19:46:05.209Z,13.48
2018-06-14T19:47:47.864Z,13.43
2018-06-14T19:49:29.567Z,13.44
2018-06-14T19:51:10.909Z,13.45
2018-06-14T19:53:54.006Z,13.41
2018-06-14T19:55:37.667Z,13.40
2018-06-14T19:57:22.879Z,13.38
2018-06-14T19:59:06.868Z,13.38
2018-06-14T20:00:49.448Z,13.37
2018-06-14T20:02:27.850Z,13.38
2018-06-14T20:04:06.418Z,13.36
2018-06-14T20:05:45.060Z,13.36
2018-06-14T20:07:25.972Z,13.32
2018-06-14T20:09:05.419Z,13.32
2018-06-14T20:10:43.568Z,13.30
2018-06-14T20:12:26.297Z,13.32
2018-06-14T20:14:07.732Z,13.34
2018-06-14T20:15:47.431Z,13.34
2018-06-14T20:17:24.617Z,13.34
2018-06-14T20:19:00.524Z,13.34
2018-06-14T20:20:43.276Z,13.31
2018-06-14T20:22:20.560Z,13.33
2018-06-14T20:23:58.322Z,13.33
2018-06-14T20:25:37.014Z,13.35
2018-06-14T20:27:20.527Z,13.32
2018-06-14T20:29:02.285Z,13.33
2018-06-14T20:30:42.507Z,13.30
2018-06-14T20:32:23.462Z,13.26
2018-06-14T20:34:02.747Z,13.30
2018-06-14T20:35:40.605Z,13.25
2018-06-14T20:37:22.294Z,13.26
2018-06-14T20:39:04.608Z,13.22
2018-06-14T20:40:46.592Z,13.21
2018-06-14T20:42:25.955Z,13.16
2018-06-14T20:44:22.099Z,13.22
2018-06-14T20:46:10.568Z,13.23
2018-06-14T20:47:52.167Z,13.22
2018-06-14T20:49:35.314Z,13.21
2018-06-14T20:51:17.952Z,13.23
2018-06-14T20:54:59.934Z,13.21
2018-06-14T20:56:45.698Z,13.18
2018-06-14T20:58:25.967Z,13.19
2018-06-14T21:00:06.350Z,13.17
2018-06-14T21:01:46.241Z,13.17
2018-06-14T21:03:28.356Z,13.21
2018-06-14T21:05:07.962Z,13.21
2018-06-14T21:06:52.929Z,13.19
2018-06-14T21:08:37.638Z,13.21
2018-06-14T21:10:16.348Z,13.16
2018-06-14T21:11:59.541Z,13.16
2018-06-14T21:13:52.278Z,13.14
2018-06-14T21:15:36.609Z,13.22
2018-06-14T21:17:18.744Z,13.18
2018-06-14T21:18:58.964Z,13.16
2018-06-14T21:22:24.752Z,13.18
2018-06-14T21:24:10.364Z,13.12
2018-06-14T21:25:50.861Z,13.14
2018-06-14T21:27:28.506Z,13.17
2018-06-14T21:29:15.637Z,13.16
2018-06-14T21:31:02.335Z,13.13
2018-06-14T21:32:44.653Z,13.15
2018-06-14T21:36:19.844Z,13.11
2018-06-14T21:39:45.576Z,13.15
2018-06-14T21:41:27.723Z,13.16
2018-06-14T21:43:14.761Z,13.18
2018-06-14T21:44:54.429Z,13.17
2018-06-14T21:46:34.257Z,13.15
2018-06-14T21:48:17.291Z,13.19
2018-06-14T21:50:15.511Z,13.19
2018-06-14T21:51:58.634Z,13.15
2018-06-14T21:53:39.830Z,13.11
2018-06-14T21:55:22.637Z,13.14
2018-06-14T21:57:01.440Z,13.18
2018-06-14T21:58:43.554Z,13.18
2018-06-14T22:00:22.573Z,13.23